Weather observations for the past three days for
Litchfield Municipal Airport
Imperial (Metric)
Date Time (cdt) Wind (mph) Vis. (mi.) Weather Sky Cond. Temperature (ºF) Relative Humidity Wind Chill (°F) Heat Index (°F) Pressure Precipitation (in)
Air Dwpt 6 hour altimeter (in) sea level (mb) 1 hr 3 hr 6 hr
Max. Min.
02 13:15 SW 9 10.00 Fair CLR 95.2 68 41% 100 30.03 0.0
02 12:55 SW 8 10.00 Fair CLR 94.6 67.6 95.2 70.9 41% 99 30.03 0.0
02 12:35 W 10 10.00 Fair CLR 94.6 67.3 41% 99 30.04 0.0
02 12:15 SW 9 10.00 Fair CLR 93.9 68.7 44% 99 30.05 0.0
02 11:55 SW 10 G 16 10.00 Fair CLR 92.8 68.7 45% 98 30.05 0.0
02 11:35 SW 9 G 16 10.00 Fair CLR 92.3 68.4 46% 97 30.06 0.0
02 11:15 SW 9 10.00 Partly Cloudy SCT095 91.8 68.5 47% 96 30.06 0.0
02 10:55 SW 8 10.00 Partly Cloudy SCT095 90.3 68.7 49% 95 30.06 0.0
02 10:35 SW 7 10.00 Fair CLR 87.1 68.5 54% 91 30.06 0.0
02 10:15 SW 8 10.00 Fair CLR 87.4 68.9 54% 92 30.06 0.0
02 09:55 SW 10 10.00 Fair CLR 86.9 69.3 56% 91 30.06 0.0
02 09:35 SW 10 10.00 Fair CLR 85.1 68.5 58% 89 30.06 0.0
02 09:15 SW 9 10.00 Fair CLR 84 68.9 61% 88 30.06 0.0
02 08:55 SW 6 0.00 NULL NULL 82.6 68.9 63% 86 30.06 0.0
02 08:35 SW 6 10.00 Fair CLR 80.8 70.3 71% 84 30.07 0.0
02 07:55 S 5 10.00 Fair CLR 76.1 70.9 84% 77 30.07 0.0
02 07:35 S 3 10.00 Fair CLR 73.8 70.2 89% 30.07 0.0
02 07:15 S 3 10.00 Fair CLR 71.6 69.1 92% 30.06 0.0
02 06:55 S 3 10.00 Fair CLR 71.1 68.4 74.3 70.7 91% 30.05 0.0
02 06:35 S 3 10.00 Fair CLR 71.1 68.4 91% 30.05 0.0
02 06:15 Calm 10.00 Fair CLR 70.9 68.2 91% 30.05 0.0
02 05:55 S 6 10.00 Partly Cloudy SCT085 70.9 68.4 92% 30.05 0.0
02 05:35 Calm 10.00 Partly Cloudy SCT085 71.6 68.4 90% 30.04 0.0
02 05:15 Calm 10.00 Partly Cloudy SCT085 71.2 68.4 91% 30.04 0.0
02 04:55 S 5 10.00 Fair CLR 71.6 68.4 90% 30.04 0.0
02 04:35 S 6 10.00 Fair CLR 71.6 68.4 90% 30.03 0.0
02 04:15 S 6 10.00 Fair CLR 71.2 68.2 90% 30.03 0.0
02 03:55 S 6 10.00 Fair CLR 71.6 68 88% 30.03 0.0
02 03:35 S 6 10.00 Fair CLR 71.8 68 88% 30.03 0.0
02 03:15 S 6 10.00 Fair CLR 72.3 67.6 85% 30.02 0.0
02 02:55 S 5 10.00 Fair CLR 72.5 67.5 84% 30.02 0.0
02 02:35 S 6 10.00 Fair CLR 72.3 67.3 84% 30.03 0.0
02 02:15 Calm 10.00 Fair CLR 71.6 67.1 86% 30.03 0.0
02 01:55 Calm 10.00 Fair CLR 74.3 66.9 78% 30.03 0.0
02 01:35 Calm 10.00 Fair CLR 73.8 66.6 78% 30.03 0.0
02 01:15 S 3 10.00 Fair CLR 73.4 66.6 79% 30.04 0.0
02 00:55 Calm 10.00 Fair CLR 73.4 66.6 87.3 73.2 79% 30.03 0.0
02 00:35 Calm 10.00 Fair CLR 73.4 66.6 79% 30.04 0.0
02 00:15 S 5 10.00 Fair CLR 73.8 66.6 78% 30.03 0.0
01 23:55 S 6 10.00 Fair CLR 74.1 66.4 77% 30.03 0.0
01 23:35 Calm 0.00 NULL NULL 74.5 66.7 77% 30.03 0.0
01 23:15 Calm 10.00 Fair CLR 74.3 67.1 78% 30.03 0.0
01 22:55 Calm 10.00 Fair CLR 74.5 67.5 79% 30.03 0.0
01 22:35 Calm 10.00 Fair CLR 75 67.6 78% 76 30.03 0.0
01 22:15 Calm 10.00 Fair CLR 76.1 67.6 75% 77 30.03 0.0
01 21:55 Calm 10.00 Fair CLR 75.4 68 78% 76 30.03 0.0
01 21:35 Calm 10.00 Fair CLR 77.4 67.5 72% 79 30.03 0.0
01 21:15 Calm 10.00 Fair CLR 78.3 67.5 70% 80 30.02 0.0
01 20:55 Calm 10.00 Fair CLR 79.2 67.5 68% 81 30.02 0.0
01 20:35 Calm 10.00 Fair CLR 78.3 67.8 70% 80 30.01 0.0
01 20:15 Calm 10.00 Fair CLR 79.9 68 67% 82 30.01 0.0
01 19:55 Calm 10.00 Fair CLR 82 67.8 62% 85 30 0.0
01 19:35 Calm 10.00 Fair CLR 83.3 67.3 59% 86 30 0.0
01 19:15 Calm 10.00 Fair CLR 84.6 69.4 61% 89 30 0.0
01 18:55 Calm 10.00 Fair CLR 87.6 69.1 96.8 87.6 54% 92 30.01 0.0
01 18:35 Calm 10.00 Fair CLR 90.7 68.5 48% 95 30.01 0.0
01 18:15 S 3 10.00 Fair CLR 92.1 68.4 46% 97 30.01 0.0
01 17:55 SW 6 10.00 Fair CLR 93.4 65.8 40% 96 30.01 0.0
01 17:35 SW 5 10.00 Fair CLR 95 64 36% 97 30.01 0.0
01 17:15 SW 6 10.00 Fair CLR 95.4 64.4 36% 98 30.01 0.0
01 16:55 SW 6 10.00 Fair CLR 95.9 64 35% 98 30.01 0.0
01 16:35 SW 8 10.00 Fair CLR 96.3 64.6 35% 99 30.01 0.0
01 16:15 SW 7 10.00 Fair CLR 96.4 64.6 35% 99 30.01 0.0
01 15:55 SW 6 10.00 Fair CLR 96.4 66.4 37% 100 30.01 0.0
01 15:35 SW 6 10.00 Fair CLR 96.1 66.2 38% 100 30.02 0.0
01 15:15 SW 7 10.00 Fair CLR 96.3 65.8 37% 100 30.02 0.0
01 14:55 S 7 10.00 Fair CLR 95.7 66.4 38% 99 30.03 0.0
01 14:35 S 5 10.00 Fair CLR 95.5 67.1 39% 100 30.03 0.0
01 14:15 S 7 10.00 Fair CLR 95.9 67.8 40% 101 30.04 0.0
01 13:55 SW 5 10.00 Fair CLR 94.6 67.1 41% 99 30.04 0.0
01 13:35 Calm 10.00 Fair CLR 94.6 67.5 41% 99 30.05 0.0
01 13:15 SW 6 10.00 Fair CLR 94.3 66.9 41% 98 30.05 0.0
01 12:55 SW 7 10.00 Fair CLR 93.7 67.1 94.1 68.9 42% 98 30.06 0.0
01 12:35 SW 6 10.00 Fair CLR 93.6 67.5 42% 98 30.06 0.0
01 12:15 W 7 10.00 Fair CLR 92.7 66.7 43% 96 30.07 0.0
01 11:55 SW 5 10.00 Fair CLR 91 68.2 47% 95 30.07 0.0
01 11:35 SW 8 10.00 Fair CLR 90.7 69.4 50% 96 30.08 0.0
01 11:15 SW 7 10.00 Fair CLR 89.4 68.2 50% 93 30.08 0.0
01 10:55 SW 6 10.00 Fair CLR 88.5 68.2 51% 92 30.09 0.0
01 10:35 SW 7 10.00 Fair CLR 87.1 68.4 54% 91 30.08 0.0
01 10:15 SW 9 10.00 Fair CLR 85.3 68.2 57% 89 30.08 0.0
01 09:55 SW 9 10.00 Fair CLR 84.4 68.5 59% 88 30.08 0.0
01 09:35 SW 9 10.00 Fair CLR 82.6 68.4 62% 86 30.08 0.0
01 09:15 SW 10 10.00 Fair CLR 81.7 68.4 64% 85 30.08 0.0
01 08:55 SW 8 10.00 Fair CLR 80.1 68.7 68% 83 30.08 0.0
01 08:35 SW 8 10.00 Fair CLR 77.9 69.1 74% 80 30.08 0.0
01 08:15 S 7 10.00 Fair CLR 75.4 69.8 83% 76 30.08 0.0
01 07:55 Calm 10.00 Fair CLR 73.2 69.4 88% 30.08 0.0
01 07:35 Calm 10.00 Fair CLR 71.4 68.9 92% 30.07 0.0
01 07:15 Calm 10.00 Fair CLR 69.8 68 94% 30.07 0.0
01 06:55 Calm 10.00 Fair CLR 68.9 67.3 71.4 67.6 95% 30.06 0.0
01 06:35 Calm 10.00 Fair CLR 68 66.7 96% 30.06 0.0
01 06:15 Calm 10.00 Fair CLR 67.6 66.4 96% 30.06 0.0
01 05:55 Calm 10.00 Fair CLR 68 66.6 95% 30.05 0.0
01 05:35 Calm 10.00 Fair CLR 68.4 67.1 96% 30.05 0.0
01 05:15 Calm 10.00 Fair CLR 68.7 67.1 95% 30.05 0.0
01 04:55 Calm 10.00 Fair CLR 68.9 67.1 94% 30.05 0.0
01 04:35 Calm 10.00 Fair CLR 68.9 67.1 94% 30.05 0.0
01 04:15 Calm 10.00 Fair CLR 69.4 67.3 93% 30.04 0.0
01 03:55 Calm 10.00 Fair CLR 70.2 67.5 91% 30.03 0.0
01 03:35 Calm 10.00 Fair CLR 70 67.5 92% 30.03 0.0
01 03:15 Calm 10.00 Fair CLR 70.2 67.5 91% 30.03 0.0
01 02:55 Calm 10.00 Fair CLR 70.7 67.6 90% 30.03 0.0
01 02:35 S 5 10.00 Fair CLR 70.3 67.5 91% 30.03 0.0
01 02:15 S 6 10.00 Fair CLR 70.3 67.6 91% 30.03 0.0
01 01:55 S 6 10.00 Fair CLR 70.2 67.5 91% 30.03 0.0
01 01:15 S 6 10.00 Fair CLR 71.1 67.5 88% 30.03 0.0
01 00:55 S 5 10.00 Fair CLR 71.4 67.6 86.7 71.1 88% 30.03 0.0
01 00:35 S 6 10.00 Fair CLR 71.6 67.6 87% 30.03 0.0
01 00:15 S 6 10.00 Fair CLR 71.6 67.1 86% 30.03 0.0
31 23:55 S 6 10.00 Fair CLR 72.3 67.1 84% 30.03 0.0
31 23:35 S 7 10.00 Fair CLR 72 67.3 85% 30.03 0.0
31 23:15 S 5 10.00 Fair CLR 72.5 67.6 85% 30.03 0.0
31 22:55 S 6 10.00 Fair CLR 73.2 68 84% 30.04 0.0
31 22:35 S 6 10.00 Fair CLR 74.5 67.6 79% 30.03 0.0
31 22:15 S 6 10.00 Fair CLR 75.6 67.8 77% 77 30.03 0.0
31 21:55 S 6 10.00 Fair CLR 75.9 67.8 76% 77 30.03 0.0
31 21:35 S 7 10.00 Fair CLR 76.3 67.6 75% 78 30.02 0.0
31 21:15 S 8 10.00 Fair CLR 75.7 68 77% 77 30.01 0.0
31 20:55 S 6 10.00 Fair CLR 76.1 68.2 77% 77 30.01 0.0
31 20:35 S 7 10.00 Fair CLR 77.4 68.2 73% 79 30.01 0.0
31 20:15 S 7 10.00 Fair CLR 78.1 68.5 73% 80 30.01 0.0
31 19:55 S 6 10.00 Fair CLR 80.4 68.2 66% 83 30.01 0.0
31 19:35 S 9 10.00 Fair CLR 83.3 67.6 59% 86 30 0.0
31 19:15 S 8 10.00 Fair CLR 84.2 67.8 58% 87 30 0.0
31 18:35 S 7 10.00 Fair CLR 89.4 67.1 48% 93 30 0.0
31 18:15 S 7 10.00 Fair CLR 91.2 66.7 45% 94 30 0.0
31 17:55 S 9 0.00 NULL NULL 0 0 0% 30 0.0
31 17:15 S 10 10.00 Fair CLR 94.1 64.9 38% 96 30 0.0
31 16:55 S 10 10.00 Fair CLR 94.3 65.3 39% 97 30 0.0
31 16:35 S 9 10.00 Fair CLR 94.6 64.8 37% 97 30 0.0
31 16:15 S 10 10.00 Fair CLR 95 64.9 37% 98 30 0.0
31 15:55 S 12 10.00 Fair CLR 94.8 64.6 37% 97 30 0.0
31 15:35 S 13 G 16 10.00 Fair CLR 94.8 65.7 38% 98 30.01 0.0
31 15:15 S 12 10.00 Fair CLR 94.8 64.9 37% 97 30.01 0.0
31 14:55 S 10 10.00 Fair CLR 94.3 64.4 37% 96 30.02 0.0
31 14:35 S 10 G 16 10.00 Fair CLR 93.9 64.2 37% 96 30.02 0.0
31 14:15 SW 10 10.00 Fair CLR 93.9 64.9 38% 96 30.03 0.0
31 13:55 S 9 G 17 10.00 Fair CLR 92.5 63.7 38% 94 30.03 0.0
31 13:35 S 9 10.00 Fair CLR 92.3 64 39% 94 30.03 0.0
31 13:15 SW 12 10.00 Fair CLR 91.9 64 40% 94 30.04 0.0
31 12:55 SW 10 10.00 Fair CLR 91.2 64 91.4 64.4 41% 93 30.06 0.0
31 12:35 SW 8 10.00 Fair CLR 90.3 64.2 42% 92 30.06 0.0
31 12:15 SW 10 10.00 Fair CLR 89.6 64.2 43% 91 30.06 0.0
31 11:55 S 12 10.00 Fair CLR 88.3 64 44% 90 30.07 0.0
31 11:35 SW 10 G 16 10.00 Fair CLR 87.6 63.7 45% 89 30.08 0.0
31 11:15 S 10 10.00 Fair CLR 86.7 63.5 46% 88 30.08 0.0
31 10:55 SW 9 10.00 Fair CLR 85.6 62.6 46% 86 30.08 0.0
31 10:35 SW 12 G 17 10.00 Fair CLR 84.9 63.7 49% 86 30.08 0.0
31 10:15 SW 13 G 16 10.00 Fair CLR 84 63 49% 85 30.08 0.0
31 09:55 SW 12 G 16 10.00 Fair CLR 82.9 62.1 49% 84 30.07 0.0
31 09:35 SW 12 G 18 10.00 Fair CLR 82.4 61.5 49% 83 30.06 0.0
31 09:15 S 10 10.00 Fair CLR 80.6 61.9 53% 82 30.06 0.0
31 08:55 S 6 10.00 Fair CLR 78.1 63.1 60% 80 30.06 0.0
31 08:35 S 7 10.00 Fair CLR 76.1 62.6 63% 78 30.06 0.0
31 08:15 S 5 10.00 Fair CLR 74.1 63.5 70% 30.06 0.0
31 07:55 S 5 10.00 Fair CLR 71.2 63 75% 30.06 0.0
31 07:35 S 5 10.00 Fair CLR 68.9 62.8 81% 30.05 0.0
31 07:15 S 3 10.00 Fair CLR 66.2 62.6 88% 30.04 0.0
31 06:55 S 5 10.00 Fair CLR 64.4 62.1 70.9 64.4 92% 30.04 0.0
31 06:35 S 5 10.00 Fair CLR 64.8 62.1 91% 30.04 0.0
31 06:15 S 6 10.00 Fair CLR 65.3 62.1 89% 30.03 0.0
31 05:55 S 6 10.00 Fair CLR 65.7 61.9 88% 30.03 0.0
31 05:35 S 6 10.00 Fair CLR 66 61.9 87% 30.03 0.0
31 05:15 S 5 10.00 Fair CLR 66.2 61.9 86% 30.03 0.0
31 04:55 S 6 10.00 Fair CLR 66.7 61.7 84% 30.03 0.0
31 04:35 S 6 10.00 Fair CLR 66.6 61.5 84% 30.03 0.0
31 04:15 S 5 10.00 Fair CLR 66.2 61.5 85% 30.03 0.0
31 03:55 S 5 10.00 Fair CLR 65.5 61.2 86% 30.03 0.0
31 03:35 S 3 10.00 Fair CLR 65.5 61 85% 30.03 0.0
31 03:15 S 5 10.00 Fair CLR 65.3 61 86% 30.02 0.0
31 02:55 S 5 10.00 Fair CLR 65.3 61.2 87% 30.02 0.0
31 02:35 S 5 10.00 Fair CLR 65.5 61.3 87% 30.02 0.0
31 02:15 S 6 10.00 Fair CLR 67.1 60.8 80% 30.03 0.0
31 01:55 S 6 10.00 Fair CLR 68.2 60.8 77% 30.03 0.0
31 01:35 S 6 10.00 Fair CLR 68.4 60.4 76% 30.03 0.0
31 01:15 SE 6 10.00 Fair CLR 70.3 60.1 70% 30.03 0.0
31 00:55 SE 6 10.00 Fair CLR 71.1 59.9 82 69.4 68% 30.03 0.0
31 00:35 SE 6 10.00 Fair CLR 70.2 59.9 70% 30.03 0.0
31 00:15 SE 5 10.00 Fair CLR 70.9 59.4 67% 30.03 0.0
30 23:55 SE 6 10.00 Fair CLR 71.6 59.4 65% 30.03 0.0
30 23:35 S 6 10.00 Fair CLR 71.6 59.2 65% 30.03 0.0
30 23:15 S 6 10.00 Fair CLR 70.3 59.7 69% 30.03 0.0
30 22:55 S 6 10.00 Fair CLR 71.4 59.7 67% 30.03 0.0
30 22:35 SE 7 10.00 Fair CLR 73.6 59.2 61% 30.03 0.0
30 22:15 SE 7 10.00 Fair CLR 73.8 59.4 61% 30.03 0.0
30 21:55 SE 6 10.00 Fair CLR 74.3 59.9 61% 30.03 0.0
30 21:35 SE 6 10.00 Fair CLR 74.8 59.9 60% 30.03 0.0
30 21:15 SE 6 10.00 Fair CLR 76.3 59.7 57% 78 30.03 0.0
30 20:55 SE 7 10.00 Fair CLR 76.6 59.9 56% 78 30.02 0.0
30 20:35 SE 6 10.00 Fair CLR 76.8 59.5 55% 79 30.02 0.0
30 20:15 SE 5 10.00 Fair CLR 77.4 59.9 55% 79 30.01 0.0
30 19:55 SE 6 10.00 Fair CLR 78.3 60.3 54% 80 30.01 0.0
30 19:35 SE 5 10.00 Fair CLR 78.8 60.4 53% 80 30.01 0.0
30 19:15 S 6 10.00 Fair CLR 80.6 61 51% 81 30.01 0.0
30 18:55 S 7 10.00 Fair CLR 82.2 61.5 91 82.2 50% 83 30.01 0.0
30 18:35 S 8 10.00 Fair CLR 83.7 61.2 47% 84 30.01 0.0
30 18:15 S 8 10.00 Fair CLR 86.2 59.9 41% 86 30.01 0.0
30 17:55 S 8 10.00 Fair CLR 87.8 59.5 39% 87 30.01 0.0
30 17:35 S 12 10.00 Fair CLR 88.7 60.6 39% 89 30.01 0.0
30 17:15 S 9 10.00 Fair CLR 89.4 59.7 37% 89 30.01 0.0
30 16:55 S 10 10.00 Fair CLR 90 59.7 36% 89 30.01 0.0
30 16:35 S 9 10.00 Fair CLR 90.3 59.7 36% 90 30.01 0.0
30 16:15 S 12 10.00 Fair CLR 90.5 59.5 35% 90 30.02 0.0
30 15:55 S 12 10.00 Fair CLR 90.5 58.8 34% 90 30.02 0.0
30 15:35 S 10 10.00 Fair CLR 90.1 58.3 34% 89 30.02 0.0
30 15:15 S 12 10.00 Fair CLR 90.3 58.8 35% 89 30.03 0.0
30 14:55 S 9 0.00 NULL NULL 89.6 60.4 38% 89 30.03 0.0
30 14:35 S 12 10.00 Fair CLR 90.9 59.9 35% 90 30.03 0.0
30 14:15 S 13 10.00 Fair CLR 90.5 58.6 34% 90 30.04 0.0
30 13:55 S 10 10.00 Fair CLR 90 57.2 33% 89 30.04 0.0
30 13:35 S 12 10.00 Fair CLR 88.9 56.5 33% 87 30.05 0.0
Date Time (cdt) Wind (mph) Vis. (mi.) Weather Sky Cond. Air Dwpt Max. Min. Relative Humidity Wind Chill (°F) Heat Index (°F) altimeter (in) sea level (mb) 1 hr 3 hr 6 hr
6 hour
Temperature (ºF) Pressure Precipitation (in)